Tampa, Florida
Traffic Map
Current Weather Conditions
Tampa, Florida
Scattered Clouds
Scattered Clouds
26°
Feels Like: 28°
Wind Chill: 26° Ceiling: Unl
Heat Index: 28° Visibility: 10mi
Dew Point: 24° Wind: 0mph
Humidity: 90% Direction: ° ()
Pressure: 30.01in Gusts: 0mph
Raw Report DataKTPA 180653Z 00000KT 10SM SCT220 26/24 A3001 RMK AO2 SLP163 T02610244
Traffic Incident Summary
Active as of:
Severity:
Category:
InformationThere was an issue retrieving the traffic information for this location. Please try a different location or try again shortly.
Advertisements